Time;durP1;ratioP1;P1;durP2;ratioP2;P2;SDS_P1;SDS_P2;PMS_P1;PMS_P2;Temp;Humidity;BMP_temperature;BMP_pressure;BME280_temperature;BME280_humidity;BME280_pressure;Samples;Min_cycle;Max_cycle;Signal;HPM_P1;HPM_P2
2022/11/09 00:01:03;;;;;;;1185.33;297.87;;;11.90;99.90;;;;;;5087347;28;20736;-53
2022/11/09 00:03:31;;;;;;;1000.73;320.53;;;11.80;99.90;;;;;;5088990;28;20204;-53
2022/11/09 00:06:00;;;;;;;722.93;197.03;;;11.80;99.90;;;;;;5088841;28;20652;-53
2022/11/09 00:08:29;;;;;;;872.57;275.23;;;11.70;99.90;;;;;;5089655;28;20290;-52
2022/11/09 00:11:04;;;;;;;719.87;179.63;;;11.70;99.90;;;;;;5089212;28;20306;-53
2022/11/09 00:13:35;;;;;;;1172.37;251.77;;;11.60;99.90;;;;;;5088842;28;20211;-53
2022/11/09 00:16:03;;;;;;;668.23;177.80;;;11.60;99.90;;;;;;5089286;28;20319;-53
2022/11/09 00:18:31;;;;;;;292.57;79.70;;;11.60;99.90;;;;;;5089024;28;20291;-53
2022/11/09 00:21:04;;;;;;;817.77;246.10;;;11.50;99.90;;;;;;5088248;28;20783;-53
2022/11/09 00:23:32;;;;;;;1393.00;324.47;;;11.50;99.90;;;;;;5055483;28;20289;-53
2022/11/09 00:26:01;;;;;;;529.43;170.43;;;11.50;99.90;;;;;;5087471;28;20287;-53
2022/11/09 00:28:30;;;;;;;429.97;134.40;;;11.50;99.90;;;;;;5066068;28;20295;-53
2022/11/09 00:30:59;;;;;;;374.00;112.70;;;11.50;99.90;;;;;;5061549;28;20266;-53
2022/11/09 00:33:27;;;;;;;968.10;297.33;;;11.50;99.90;;;;;;5088563;28;20291;-53
2022/11/09 00:35:56;;;;;;;465.77;128.27;;;11.60;99.90;;;;;;5087605;28;20299;-53
2022/11/09 00:38:24;;;;;;;127.43;38.93;;;11.60;99.90;;;;;;5089091;28;20215;-53
2022/11/09 00:40:52;;;;;;;571.03;177.30;;;11.70;99.90;;;;;;5085995;28;20328;-53
2022/11/09 00:43:20;;;;;;;853.37;296.47;;;11.70;99.90;;;;;;5088524;28;20239;-52
2022/11/09 00:45:50;;;;;;;547.37;184.33;;;11.70;99.90;;;;;;5088134;28;20285;-53
2022/11/09 00:48:18;;;;;;;923.17;259.90;;;11.70;99.90;;;;;;5079412;28;20288;-53
2022/11/09 00:50:49;;;;;;;846.50;263.97;;;11.70;99.90;;;;;;5079617;28;20319;-53
2022/11/09 00:53:17;;;;;;;286.60;78.13;;;11.70;99.90;;;;;;5086448;28;20261;-53
2022/11/09 00:55:56;;;;;;;986.73;316.63;;;11.70;99.90;;;;;;5078832;28;20244;-53
2022/11/09 00:58:25;;;;;;;1274.50;404.90;;;11.70;99.90;;;;;;5084710;28;20283;-53
2022/11/09 01:00:55;;;;;;;1035.70;256.70;;;11.60;99.90;;;;;;5086309;28;20728;-53
2022/11/09 01:03:24;;;;;;;1308.30;371.13;;;11.60;99.90;;;;;;5087040;28;20208;-53
2022/11/09 01:05:52;;;;;;;768.67;222.30;;;11.60;99.90;;;;;;5089002;28;20295;-52
2022/11/09 01:08:20;;;;;;;761.80;265.73;;;11.60;99.90;;;;;;5080613;28;20298;-53
2022/11/09 01:10:49;;;;;;;1180.33;292.50;;;11.50;99.90;;;;;;5088581;28;20258;-53
2022/11/09 01:13:18;;;;;;;764.43;164.43;;;11.50;99.90;;;;;;5088342;28;20296;-53
2022/11/09 01:15:49;;;;;;;879.80;235.57;;;11.50;99.90;;;;;;5088153;28;20208;-53
2022/11/09 01:18:20;;;;;;;969.23;238.40;;;11.60;99.90;;;;;;5078144;28;20315;-53
2022/11/09 01:20:50;;;;;;;1437.33;459.57;;;11.60;99.90;;;;;;5074447;28;20319;-53
2022/11/09 01:23:19;;;;;;;710.97;221.03;;;11.60;99.90;;;;;;5074101;28;20201;-53
2022/11/09 01:25:47;;;;;;;443.07;137.73;;;11.60;99.90;;;;;;5081310;28;20208;-53
2022/11/09 01:28:16;;;;;;;391.70;105.47;;;11.60;99.90;;;;;;5080610;28;20205;-53
2022/11/09 01:30:44;;;;;;;1392.33;457.70;;;11.60;99.90;;;;;;5057806;28;20654;-53
2022/11/09 01:33:12;;;;;;;816.60;270.47;;;11.60;99.90;;;;;;5087827;28;20210;-53
2022/11/09 01:35:41;;;;;;;1069.97;300.07;;;11.60;99.90;;;;;;5088490;28;20232;-53
2022/11/09 01:38:10;;;;;;;1859.63;598.37;;;11.60;99.90;;;;;;5084781;28;20730;-53
2022/11/09 01:40:39;;;;;;;126.83;44.43;;;11.60;99.90;;;;;;5091816;28;20231;-53
2022/11/09 01:43:15;;;;;;;788.90;246.00;;;11.50;99.90;;;;;;5091091;28;20208;-53
2022/11/09 01:45:47;;;;;;;548.93;164.60;;;11.60;99.90;;;;;;5092220;28;20207;-53
2022/11/09 01:48:18;;;;;;;927.47;284.00;;;11.60;99.90;;;;;;5086924;28;20224;-53
2022/11/09 01:50:52;;;;;;;410.97;93.80;;;11.60;99.90;;;;;;5060170;28;20261;-53
2022/11/09 01:53:26;;;;;;;826.13;192.40;;;11.50;99.90;;;;;;5087269;28;20569;-53
2022/11/09 01:55:57;;;;;;;195.30;59.20;;;11.50;99.90;;;;;;5091895;28;20695;-53
2022/11/09 01:58:28;;;;;;;505.77;181.70;;;11.50;99.90;;;;;;5091587;28;20242;-53
2022/11/09 02:00:59;;;;;;;846.63;253.73;;;11.50;99.90;;;;;;5091683;28;20319;-53
2022/11/09 02:03:30;;;;;;;953.93;249.83;;;11.50;99.90;;;;;;5079815;28;20675;-53
2022/11/09 02:06:00;;;;;;;581.00;166.13;;;11.50;99.90;;;;;;5091529;28;20323;-53
2022/11/09 02:08:29;;;;;;;1115.17;298.17;;;11.50;99.90;;;;;;5091658;28;20227;-53
2022/11/09 02:11:05;;;;;;;1087.50;292.17;;;11.40;99.90;;;;;;5090745;28;20311;-53
2022/11/09 02:13:33;;;;;;;662.97;176.73;;;11.50;99.90;;;;;;5091341;28;20291;-53
2022/11/09 02:16:02;;;;;;;758.07;206.27;;;11.40;99.90;;;;;;5086361;28;20303;-53
2022/11/09 02:18:31;;;;;;;784.70;121.33;;;11.40;99.90;;;;;;5075438;28;20643;-53
2022/11/09 02:21:00;;;;;;;936.63;211.33;;;11.50;99.90;;;;;;5075639;28;20278;-53
2022/11/09 02:23:29;;;;;;;1109.23;236.87;;;11.50;99.90;;;;;;5067807;28;20854;-53
2022/11/09 02:26:01;;;;;;;1223.83;321.87;;;11.50;99.90;;;;;;5070089;28;20292;-53
2022/11/09 02:28:30;;;;;;;669.53;168.53;;;11.50;99.90;;;;;;5070573;28;20629;-53
2022/11/09 02:30:59;;;;;;;1283.43;340.17;;;11.50;99.90;;;;;;5069860;28;20279;-53
2022/11/09 02:33:27;;;;;;;933.13;192.77;;;11.50;99.90;;;;;;5066730;28;20665;-53
2022/11/09 02:35:55;;;;;;;1147.67;261.20;;;11.50;99.90;;;;;;5065656;28;20289;-53
2022/11/09 02:38:24;;;;;;;1193.03;279.30;;;11.40;99.90;;;;;;5064067;28;20860;-53
2022/11/09 02:40:53;;;;;;;1326.83;291.90;;;11.50;99.90;;;;;;5070344;28;20311;-53
2022/11/09 02:43:21;;;;;;;899.70;210.43;;;11.50;99.90;;;;;;5070229;28;20292;-53
2022/11/09 02:45:49;;;;;;;766.30;210.33;;;11.50;99.90;;;;;;5069380;28;20201;-53
2022/11/09 02:48:17;;;;;;;801.37;174.17;;;11.50;99.90;;;;;;5066924;28;20252;-53
2022/11/09 02:50:46;;;;;;;1863.17;402.33;;;11.50;99.90;;;;;;5065439;28;20304;-52
2022/11/09 02:53:14;;;;;;;446.10;102.93;;;11.50;99.90;;;;;;5068633;28;20652;-53
2022/11/09 02:55:43;;;;;;;839.63;215.27;;;11.50;99.90;;;;;;5069928;28;20300;-53
2022/11/09 02:58:11;;;;;;;401.70;121.10;;;11.50;99.90;;;;;;5070043;28;20311;-53
2022/11/09 03:00:39;;;;;;;784.20;151.70;;;11.50;99.90;;;;;;5069973;28;20213;-53
2022/11/09 03:03:07;;;;;;;421.70;102.90;;;11.60;99.90;;;;;;5069156;28;20331;-53
2022/11/09 03:05:36;;;;;;;846.77;234.33;;;11.60;99.90;;;;;;5070550;28;20295;-53
2022/11/09 03:08:04;;;;;;;1282.23;342.17;;;11.60;99.90;;;;;;5069916;28;20311;-53
2022/11/09 03:10:32;;;;;;;1240.50;219.10;;;11.50;99.90;;;;;;5070373;28;20260;-52
2022/11/09 03:13:02;;;;;;;1106.10;195.03;;;11.50;99.90;;;;;;5068145;28;20296;-53
2022/11/09 03:15:30;;;;;;;1362.30;277.70;;;11.60;99.90;;;;;;5068727;28;20232;-53
2022/11/09 03:17:58;;;;;;;1182.03;219.97;;;11.50;99.90;;;;;;5069054;28;20594;-54
2022/11/09 03:20:26;;;;;;;1270.97;284.33;;;11.50;99.90;;;;;;5069865;28;20211;-53
2022/11/09 03:22:58;;;;;;;1367.70;301.83;;;11.50;99.90;;;;;;5057433;28;20693;-53
2022/11/09 03:25:26;;;;;;;1899.07;340.40;;;11.40;99.90;;;;;;5069882;28;20582;-53
2022/11/09 03:27:57;;;;;;;1999.90;418.77;;;11.50;99.90;;;;;;5069247;28;20197;-52
2022/11/09 03:30:27;;;;;;;1999.90;455.73;;;11.40;99.90;;;;;;5068947;28;20217;-53
2022/11/09 03:32:59;;;;;;;1999.90;438.23;;;11.40;99.90;;;;;;5068150;28;20655;-53
2022/11/09 03:35:27;;;;;;;1999.90;445.27;;;11.40;99.90;;;;;;5054245;28;20205;-53
2022/11/09 03:37:55;;;;;;;957.43;194.37;;;11.40;99.90;;;;;;5069471;28;20319;-53
2022/11/09 03:40:23;;;;;;;1669.73;332.50;;;11.40;99.90;;;;;;5069180;28;20523;-53
2022/11/09 03:42:51;;;;;;;1395.40;227.10;;;11.40;99.90;;;;;;5068112;28;20248;-53
2022/11/09 03:45:19;;;;;;;1902.30;336.70;;;11.40;99.90;;;;;;5069467;28;20201;-53
2022/11/09 03:47:49;;;;;;;364.83;103.40;;;11.40;99.90;;;;;;5069407;28;20219;-53
2022/11/09 03:50:18;;;;;;;702.33;137.47;;;11.40;99.90;;;;;;5069618;28;20639;-53
2022/11/09 03:52:47;;;;;;;1999.90;351.67;;;11.40;99.90;;;;;;5058197;28;20332;-53
2022/11/09 03:55:15;;;;;;;1078.73;187.00;;;11.40;99.90;;;;;;5068857;28;20204;-53
2022/11/09 03:57:45;;;;;;;760.80;160.93;;;11.40;99.90;;;;;;5068660;28;20761;-53
2022/11/09 04:00:16;;;;;;;977.03;201.23;;;11.50;99.90;;;;;;5068768;28;20288;-54
2022/11/09 04:02:44;;;;;;;1731.80;273.10;;;11.50;99.90;;;;;;5054639;28;20248;-53
2022/11/09 04:05:14;;;;;;;1999.90;409.47;;;11.50;99.90;;;;;;5068996;28;20247;-54
2022/11/09 04:07:47;;;;;;;1174.07;248.27;;;11.50;99.90;;;;;;5069280;28;20716;-53
2022/11/09 04:10:15;;;;;;;1822.63;315.63;;;11.60;99.90;;;;;;5069228;28;20241;-53
2022/11/09 04:12:43;;;;;;;1993.53;320.80;;;11.60;99.90;;;;;;5068348;28;20303;-54
2022/11/09 04:15:12;;;;;;;1934.37;310.37;;;11.60;99.90;;;;;;5069114;28;20269;-53
2022/11/09 04:17:40;;;;;;;1403.37;247.53;;;11.60;99.90;;;;;;5069076;28;20268;-53
2022/11/09 04:20:09;;;;;;;1999.90;455.60;;;11.60;99.90;;;;;;5068832;28;20319;-53
2022/11/09 04:22:39;;;;;;;919.33;146.50;;;11.70;99.90;;;;;;5068359;28;20701;-53
2022/11/09 04:25:07;;;;;;;1999.90;651.13;;;11.70;99.90;;;;;;5068448;28;20577;-53
2022/11/09 04:27:35;;;;;;;1999.90;578.03;;;11.60;99.90;;;;;;5068762;28;20299;-53
2022/11/09 04:30:04;;;;;;;1999.90;512.37;;;11.70;99.90;;;;;;5059664;28;20295;-53
2022/11/09 04:32:32;;;;;;;1999.90;581.60;;;11.70;99.90;;;;;;5067927;28;20269;-53
2022/11/09 04:35:00;;;;;;;1989.43;332.77;;;11.80;99.90;;;;;;5068555;28;20295;-53
2022/11/09 04:37:28;;;;;;;1999.90;445.33;;;11.70;99.90;;;;;;5068446;28;20287;-53
2022/11/09 04:39:57;;;;;;;1999.90;644.17;;;11.80;99.90;;;;;;5069070;28;20319;-53
2022/11/09 04:42:25;;;;;;;1999.90;374.30;;;11.80;99.90;;;;;;5068031;28;20339;-53
2022/11/09 04:44:53;;;;;;;1999.90;525.37;;;11.80;99.90;;;;;;5069084;28;20296;-53
2022/11/09 04:47:21;;;;;;;1999.90;470.07;;;11.80;99.90;;;;;;5068919;28;20231;-53
2022/11/09 04:49:49;;;;;;;1369.40;288.57;;;11.80;99.90;;;;;;5067487;28;20288;-53
2022/11/09 04:52:17;;;;;;;1999.90;611.30;;;11.90;99.90;;;;;;5068019;28;20319;-53
2022/11/09 04:54:45;;;;;;;1999.90;362.83;;;11.90;99.90;;;;;;5069293;28;20217;-53
2022/11/09 04:57:15;;;;;;;1999.90;423.63;;;11.80;99.90;;;;;;5068390;28;20259;-53
2022/11/09 04:59:43;;;;;;;1176.30;195.60;;;11.90;99.90;;;;;;5067872;28;20664;-53
2022/11/09 05:02:11;;;;;;;1999.90;513.60;;;11.90;99.90;;;;;;5064646;28;20312;-53
2022/11/09 05:04:39;;;;;;;1999.90;355.23;;;11.90;99.90;;;;;;5067927;28;20201;-53
2022/11/09 05:07:07;;;;;;;1999.90;636.70;;;11.90;99.90;;;;;;5057308;28;20301;-53
2022/11/09 05:09:35;;;;;;;1467.03;236.23;;;11.90;99.90;;;;;;5068332;28;20258;-53
2022/11/09 05:12:03;;;;;;;1999.90;389.03;;;12.00;99.90;;;;;;5067794;28;20725;-53
2022/11/09 05:14:32;;;;;;;1307.20;235.60;;;11.90;99.90;;;;;;5071556;28;20201;-53
2022/11/09 05:17:00;;;;;;;1678.93;267.97;;;12.00;99.90;;;;;;5071930;28;20240;-54
2022/11/09 05:19:28;;;;;;;1486.83;239.87;;;12.00;99.90;;;;;;5071954;28;20391;-54
2022/11/09 05:23:57;;;;;;;1885.93;357.47;;;12.00;99.90;;;;;;5071404;28;20319;-53
2022/11/09 05:24:43;;;;;;;1334.73;221.30;;;12.00;99.90;;;;;;5058799;28;20201;-53
2022/11/09 05:27:11;;;;;;;1722.40;376.93;;;12.00;99.90;;;;;;5071680;28;20216;-54
2022/11/09 05:29:41;;;;;;;1999.90;457.80;;;12.00;99.90;;;;;;5069451;28;20227;-53
2022/11/09 05:32:09;;;;;;;1999.90;489.53;;;12.00;99.90;;;;;;5066036;28;20229;-53
2022/11/09 05:34:37;;;;;;;1999.90;380.50;;;11.90;99.90;;;;;;5069770;28;20295;-53
2022/11/09 05:37:05;;;;;;;1999.90;360.67;;;12.00;99.90;;;;;;5071791;28;20243;-53
2022/11/09 05:39:33;;;;;;;1999.90;442.70;;;12.00;99.90;;;;;;5071289;28;20769;-53
2022/11/09 05:42:01;;;;;;;1999.90;513.47;;;12.00;99.90;;;;;;5070894;28;20335;-53
2022/11/09 05:44:29;;;;;;;1999.90;563.97;;;12.00;99.90;;;;;;5070963;28;20219;-53
2022/11/09 05:46:58;;;;;;;1999.90;640.00;;;12.00;99.90;;;;;;5071793;28;20300;-52
2022/11/09 05:49:26;;;;;;;1999.90;466.47;;;12.00;99.90;;;;;;5063461;28;21005;-53
2022/11/09 05:51:54;;;;;;;1551.30;292.53;;;12.00;99.90;;;;;;5070573;28;20308;-53
2022/11/09 05:54:22;;;;;;;1999.90;383.27;;;12.00;99.90;;;;;;5071499;28;20209;-53
2022/11/09 05:56:51;;;;;;;1999.90;650.50;;;12.00;99.90;;;;;;5071898;28;20374;-53
2022/11/09 05:59:19;;;;;;;1994.57;343.73;;;12.00;99.90;;;;;;5070586;28;20310;-53
2022/11/09 06:01:47;;;;;;;1882.67;366.23;;;12.00;99.90;;;;;;5070738;28;20267;-53
2022/11/09 06:04:16;;;;;;;1999.90;376.13;;;12.00;99.90;;;;;;5070901;28;20292;-53
2022/11/09 06:06:44;;;;;;;1999.90;437.67;;;12.00;99.90;;;;;;5071176;28;20306;-53
2022/11/09 06:09:12;;;;;;;1999.90;728.37;;;12.00;99.90;;;;;;5067739;28;20201;-53
2022/11/09 06:11:40;;;;;;;1999.90;408.70;;;12.00;99.90;;;;;;5070664;28;20670;-53
2022/11/09 06:14:08;;;;;;;1999.90;363.50;;;12.00;99.90;;;;;;5070640;28;20243;-53
2022/11/09 06:16:36;;;;;;;1999.90;476.83;;;12.00;99.90;;;;;;5070988;28;20685;-53
2022/11/09 06:19:05;;;;;;;1052.47;235.43;;;12.00;99.90;;;;;;5070717;28;20307;-53
2022/11/09 06:21:34;;;;;;;1999.90;493.90;;;12.10;99.90;;;;;;5070726;28;20255;-54
2022/11/09 06:24:02;;;;;;;1999.90;473.27;;;12.10;99.90;;;;;;5070368;28;20291;-52
2022/11/09 06:26:30;;;;;;;1518.50;279.10;;;12.00;99.90;;;;;;5070245;28;20216;-53
2022/11/09 06:28:58;;;;;;;1934.90;308.40;;;12.00;99.90;;;;;;5068157;28;20237;-53
2022/11/09 06:31:27;;;;;;;1999.90;603.73;;;12.10;99.90;;;;;;5066247;28;20320;-53
2022/11/09 06:33:57;;;;;;;1999.90;431.23;;;12.00;99.90;;;;;;5056733;28;20292;-53
2022/11/09 06:36:26;;;;;;;1999.90;443.40;;;12.10;99.90;;;;;;5068452;28;20864;-53
2022/11/09 06:38:56;;;;;;;1999.90;514.37;;;12.00;99.90;;;;;;5055524;28;20216;-53
2022/11/09 06:41:24;;;;;;;1999.90;436.27;;;12.10;99.90;;;;;;5070637;28;20236;-54
2022/11/09 06:43:52;;;;;;;1999.90;520.50;;;12.10;99.90;;;;;;5069531;28;20247;-53
2022/11/09 06:46:20;;;;;;;1999.90;397.90;;;12.10;99.90;;;;;;5070999;28;20240;-53
2022/11/09 06:48:48;;;;;;;1669.83;297.30;;;12.10;99.90;;;;;;5069679;28;20994;-53
2022/11/09 06:51:21;;;;;;;1836.70;313.60;;;12.10;99.90;;;;;;5069685;28;20224;-53
2022/11/09 06:53:50;;;;;;;1999.90;441.23;;;12.10;99.90;;;;;;5069845;28;20228;-54
2022/11/09 06:56:19;;;;;;;1999.90;642.87;;;12.10;99.90;;;;;;5069581;28;20308;-53
2022/11/09 06:58:47;;;;;;;1999.90;528.13;;;12.10;99.90;;;;;;5070713;28;20313;-51
2022/11/09 07:01:19;;;;;;;1999.90;401.47;;;12.10;99.90;;;;;;5069853;28;20316;-50
2022/11/09 07:03:47;;;;;;;1999.90;656.13;;;12.20;99.90;;;;;;5069139;28;20212;-51
2022/11/09 07:06:15;;;;;;;1999.90;427.57;;;12.20;99.90;;;;;;5069901;28;20219;-53
2022/11/09 07:08:43;;;;;;;1999.90;492.70;;;12.30;99.90;;;;;;5070185;28;20292;-53
2022/11/09 07:11:14;;;;;;;1999.90;694.90;;;12.20;99.90;;;;;;5070410;28;20255;-53
2022/11/09 07:13:44;;;;;;;1878.33;341.50;;;12.30;99.90;;;;;;5069121;28;20586;-53
2022/11/09 07:16:16;;;;;;;1999.90;517.17;;;12.30;99.90;;;;;;5069859;28;20730;-53
2022/11/09 07:18:45;;;;;;;1999.90;464.70;;;12.30;99.90;;;;;;5069382;28;20295;-50
2022/11/09 07:21:13;;;;;;;1999.90;511.37;;;12.30;99.90;;;;;;5058028;28;20221;-50
2022/11/09 07:23:42;;;;;;;1999.90;563.43;;;12.30;99.90;;;;;;5069687;28;20248;-51
2022/11/09 07:26:10;;;;;;;1999.90;618.30;;;12.30;99.90;;;;;;5069448;28;20209;-51
2022/11/09 07:28:38;;;;;;;1999.90;669.13;;;12.30;99.90;;;;;;5064333;28;20751;-50
2022/11/09 07:31:08;;;;;;;1999.90;509.43;;;12.30;99.90;;;;;;5065068;28;20229;-51
2022/11/09 07:33:37;;;;;;;1999.90;432.33;;;12.40;99.90;;;;;;5068580;28;20758;-51
2022/11/09 07:36:05;;;;;;;1999.90;613.03;;;12.40;99.90;;;;;;5068007;28;20202;-51
2022/11/09 07:38:33;;;;;;;1999.90;612.07;;;12.40;99.90;;;;;;5069537;28;20240;-51
2022/11/09 07:41:02;;;;;;;1999.90;473.50;;;12.40;99.90;;;;;;5059100;28;20229;-50
2022/11/09 07:43:30;;;;;;;1999.90;429.17;;;12.40;99.90;;;;;;5065183;28;20232;-51
2022/11/09 07:45:58;;;;;;;1932.73;299.97;;;12.40;99.90;;;;;;5063519;28;20209;-50
2022/11/09 07:48:27;;;;;;;1999.90;448.73;;;12.50;99.90;;;;;;5068820;28;20299;-50
2022/11/09 07:50:56;;;;;;;1999.90;636.10;;;12.50;99.90;;;;;;5069271;28;20320;-52
2022/11/09 07:53:24;;;;;;;1999.90;840.33;;;12.50;99.90;;;;;;5068137;28;20701;-51
2022/11/09 07:55:57;;;;;;;1999.90;402.13;;;12.50;99.90;;;;;;5055059;28;20251;-51
2022/11/09 07:58:25;;;;;;;1999.90;422.93;;;12.50;99.90;;;;;;5069115;28;20247;-52
2022/11/09 08:00:53;;;;;;;1999.90;459.97;;;12.60;99.90;;;;;;5068857;28;20239;-52
2022/11/09 08:03:23;;;;;;;1999.90;536.63;;;12.60;99.90;;;;;;5067992;28;20970;-51
2022/11/09 08:05:52;;;;;;;1999.90;756.77;;;12.60;99.90;;;;;;5068836;28;20292;-51
2022/11/09 08:08:20;;;;;;;1999.90;543.37;;;12.60;99.90;;;;;;5069082;28;20762;-50
2022/11/09 08:10:51;;;;;;;1999.90;444.10;;;12.60;99.90;;;;;;5068929;28;20319;-51
2022/11/09 08:13:19;;;;;;;1999.90;498.77;;;12.60;99.90;;;;;;5068367;28;20300;-51
2022/11/09 08:15:48;;;;;;;1999.90;460.07;;;12.70;99.90;;;;;;5068690;28;20255;-51
2022/11/09 08:18:17;;;;;;;1999.90;770.40;;;12.70;99.90;;;;;;5063925;28;20252;-51
2022/11/09 08:20:46;;;;;;;1999.90;412.43;;;12.70;99.90;;;;;;5063581;28;20246;-51
2022/11/09 08:23:18;;;;;;;1999.90;346.17;;;12.70;99.90;;;;;;5067975;28;20648;-50
2022/11/09 08:25:46;;;;;;;1817.10;306.27;;;12.70;99.90;;;;;;5068740;28;20284;-51
2022/11/09 08:28:15;;;;;;;1999.90;571.03;;;12.70;99.90;;;;;;5067783;28;20300;-51
2022/11/09 08:30:44;;;;;;;1999.90;568.60;;;12.70;99.90;;;;;;5064119;28;20293;-51
2022/11/09 08:33:13;;;;;;;1821.40;400.67;;;12.70;99.90;;;;;;5063155;28;20232;-51
2022/11/09 08:35:41;;;;;;;1999.90;484.77;;;12.70;99.90;;;;;;5067852;28;20237;-51
2022/11/09 08:38:09;;;;;;;1953.67;331.73;;;12.80;99.90;;;;;;5068331;28;20297;-51
2022/11/09 08:40:39;;;;;;;1999.90;708.63;;;12.90;99.90;;;;;;5068703;28;20312;-51
2022/11/09 08:43:08;;;;;;;1999.90;674.70;;;12.90;99.90;;;;;;5068013;28;20232;-51
2022/11/09 08:45:38;;;;;;;1999.90;820.17;;;12.90;99.90;;;;;;5068243;28;20205;-50
2022/11/09 08:48:07;;;;;;;1999.90;799.50;;;12.90;99.90;;;;;;5063566;28;20208;-52
2022/11/09 08:50:36;;;;;;;1999.90;670.83;;;12.90;99.90;;;;;;5072672;28;20204;-51
2022/11/09 08:53:05;;;;;;;1999.90;600.03;;;12.90;99.90;;;;;;5072476;28;20218;-50
2022/11/09 08:55:33;;;;;;;1999.90;641.03;;;12.90;99.90;;;;;;5070600;28;20204;-51
2022/11/09 08:58:03;;;;;;;1999.90;409.17;;;13.00;99.90;;;;;;5062751;28;20310;-51
2022/11/09 09:00:32;;;;;;;1999.90;899.10;;;13.10;99.90;;;;;;5072680;28;20260;-51
2022/11/09 09:03:04;;;;;;;1999.90;488.97;;;13.20;99.90;;;;;;5071433;28;20274;-51
2022/11/09 09:05:33;;;;;;;1999.90;453.73;;;13.20;99.90;;;;;;5071927;28;20236;-50
2022/11/09 09:08:01;;;;;;;1999.90;592.97;;;13.30;99.90;;;;;;5071154;28;20288;-51
2022/11/09 09:10:31;;;;;;;1999.90;396.10;;;13.50;99.90;;;;;;5067213;28;20296;-50
2022/11/09 09:12:59;;;;;;;1999.90;781.10;;;13.50;99.90;;;;;;5071931;28;20223;-51
2022/11/09 09:15:29;;;;;;;1999.90;607.33;;;13.40;99.90;;;;;;5072199;28;20209;-50
2022/11/09 09:18:00;;;;;;;1999.90;345.47;;;13.40;99.90;;;;;;5071921;28;20287;-51
2022/11/09 09:20:28;;;;;;;1999.90;448.10;;;13.40;99.90;;;;;;5072846;28;20247;-50
2022/11/09 09:22:58;;;;;;;1999.90;545.60;;;13.40;99.90;;;;;;5072054;28;20252;-51
2022/11/09 09:25:27;;;;;;;1999.90;761.47;;;13.40;99.90;;;;;;5064181;28;20205;-51
2022/11/09 09:27:55;;;;;;;1999.90;716.93;;;13.50;99.90;;;;;;5069682;28;20204;-51
2022/11/09 09:30:23;;;;;;;1999.90;666.83;;;13.60;99.90;;;;;;5071439;28;20304;-51
2022/11/09 09:32:57;;;;;;;1999.90;341.20;;;13.50;99.90;;;;;;5071408;28;20239;-50
2022/11/09 09:35:25;;;;;;;1999.90;600.30;;;13.50;99.90;;;;;;5071036;28;20251;-51
2022/11/09 09:37:54;;;;;;;1999.90;567.57;;;13.40;99.90;;;;;;5071653;28;20721;-51
2022/11/09 09:40:27;;;;;;;1999.90;662.97;;;13.50;99.90;;;;;;5071136;28;20688;-51
2022/11/09 09:42:56;;;;;;;1999.90;327.53;;;13.50;99.90;;;;;;5071329;28;20575;-51
2022/11/09 09:45:27;;;;;;;1800.73;302.07;;;13.50;99.90;;;;;;5075364;28;20871;-50
2022/11/09 09:48:02;;;;;;;1999.90;420.07;;;13.60;99.90;;;;;;5091988;28;20239;-51
2022/11/09 09:50:37;;;;;;;1999.90;647.33;;;13.70;99.90;;;;;;5091397;28;20227;-51
2022/11/09 09:53:14;;;;;;;1999.90;453.63;;;13.80;99.90;;;;;;5090952;28;20239;-51
2022/11/09 09:55:56;;;;;;;1999.90;439.63;;;13.80;99.90;;;;;;5092574;28;20254;-51
2022/11/09 09:58:26;;;;;;;1999.90;728.57;;;13.80;99.90;;;;;;5090681;28;20196;-50
2022/11/09 10:00:58;;;;;;;1999.90;999.90;;;13.80;99.90;;;;;;5091109;28;20310;-51
2022/11/09 10:03:27;;;;;;;1999.90;633.40;;;13.90;99.90;;;;;;5067553;28;20240;-50
2022/11/09 10:06:08;;;;;;;1999.90;438.00;;;13.90;99.90;;;;;;5089438;28;20247;-51
2022/11/09 10:08:47;;;;;;;1982.17;375.57;;;14.00;99.90;;;;;;5091433;28;20242;-50
2022/11/09 10:11:28;;;;;;;1999.90;489.20;;;14.10;99.90;;;;;;5064945;28;20265;-51
2022/11/09 10:14:14;;;;;;;1999.90;725.03;;;14.10;99.90;;;;;;5081033;28;20300;-52
2022/11/09 10:16:50;;;;;;;1999.90;659.30;;;14.10;99.90;;;;;;5069980;28;20197;-51
2022/11/09 10:19:52;;;;;;;1999.90;882.43;;;14.10;99.90;;;;;;5087514;28;20286;-51
2022/11/09 10:22:26;;;;;;;1999.90;581.30;;;14.10;99.90;;;;;;5078236;28;20434;-51
2022/11/09 10:24:59;;;;;;;1999.90;624.00;;;14.20;99.90;;;;;;5064846;28;20295;-51
2022/11/09 10:27:52;;;;;;;1999.90;470.23;;;14.20;99.90;;;;;;5087483;28;20219;-51
2022/11/09 10:30:23;;;;;;;1999.90;682.97;;;14.30;99.90;;;;;;5072862;28;20304;-51
2022/11/09 10:32:54;;;;;;;1999.90;454.73;;;14.30;99.90;;;;;;5069722;28;20280;-51
2022/11/09 10:35:29;;;;;;;1999.90;511.83;;;14.40;99.90;;;;;;5070679;28;20758;-50
2022/11/09 10:37:57;;;;;;;1999.90;644.00;;;14.40;99.90;;;;;;5070550;28;20232;-51
2022/11/09 10:40:30;;;;;;;1999.90;543.17;;;14.50;99.90;;;;;;5067358;28;20232;-51
2022/11/09 10:43:00;;;;;;;1999.90;453.40;;;14.40;99.90;;;;;;5061644;28;20256;-51
2022/11/09 10:45:33;;;;;;;1999.90;363.67;;;14.50;99.90;;;;;;5070564;28;20228;-51
2022/11/09 10:48:02;;;;;;;1999.90;527.42;;;14.60;99.90;;;;;;5069891;28;20241;-51
2022/11/09 10:50:35;;;;;;;1999.90;575.85;;;14.50;99.90;;;;;;5070264;28;20749;-51
2022/11/09 10:53:14;;;;;;;1999.90;438.55;;;14.50;99.90;;;;;;5069654;28;20201;-52
2022/11/09 10:55:53;;;;;;;1999.90;734.83;;;14.50;99.90;;;;;;5069993;28;20292;-51
2022/11/09 10:58:31;;;;;;;1999.90;678.20;;;14.40;99.90;;;;;;5070714;28;20216;-51
2022/11/09 11:01:01;;;;;;;1999.90;642.47;;;14.40;99.90;;;;;;5055773;28;20243;-51
2022/11/09 11:03:31;;;;;;;1999.90;748.67;;;14.40;99.90;;;;;;5069804;28;20208;-51
2022/11/09 11:06:03;;;;;;;1999.90;709.67;;;14.50;99.90;;;;;;5069042;28;20295;-51
2022/11/09 11:08:41;;;;;;;1999.90;688.72;;;14.40;99.90;;;;;;5070311;28;20205;-51
2022/11/09 11:11:21;;;;;;;1999.90;697.73;;;14.40;99.90;;;;;;5068465;28;20260;-51
2022/11/09 11:14:17;;;;;;;1999.90;576.67;;;14.40;99.90;;;;;;5069276;28;20573;-51
2022/11/09 11:16:51;;;;;;;1999.90;636.63;;;14.40;99.90;;;;;;5070079;28;20205;-51
2022/11/09 11:19:30;;;;;;;1999.90;632.30;;;14.50;99.90;;;;;;5069425;28;20205;-51
2022/11/09 11:22:18;;;;;;;1999.90;674.73;;;14.40;99.90;;;;;;5061547;28;20233;-51
2022/11/09 11:24:54;;;;;;;1999.90;630.57;;;14.40;99.90;;;;;;5068910;28;20239;-50
2022/11/09 11:27:29;;;;;;;1999.90;857.13;;;14.40;99.90;;;;;;5069437;28;20295;-51
2022/11/09 11:30:05;;;;;;;1999.90;550.13;;;14.40;99.90;;;;;;5068113;28;20251;-51
2022/11/09 11:32:34;;;;;;;1999.90;693.67;;;14.50;99.90;;;;;;5068107;28;20263;-50
2022/11/09 11:35:04;;;;;;;1999.90;869.07;;;14.50;99.90;;;;;;5067656;28;20296;-51
2022/11/09 11:37:46;;;;;;;1999.90;815.27;;;14.40;99.90;;;;;;5069676;28;20239;-51
2022/11/09 11:40:23;;;;;;;1999.90;564.83;;;14.50;99.90;;;;;;5068501;28;20288;-50
2022/11/09 11:43:06;;;;;;;1999.90;679.07;;;14.60;99.90;;;;;;5068291;28;20760;-51
2022/11/09 11:45:40;;;;;;;1999.90;775.65;;;14.70;99.90;;;;;;5068569;28;20251;-51
2022/11/09 11:48:26;;;;;;;1999.90;633.60;;;14.70;99.90;;;;;;5068991;28;20204;-51
2022/11/09 11:51:00;;;;;;;1999.90;517.17;;;14.70;99.90;;;;;;5056120;28;20315;-50
2022/11/09 11:53:44;;;;;;;1865.72;358.33;;;14.60;99.90;;;;;;5068301;28;20211;-51
2022/11/09 11:56:21;;;;;;;1999.90;794.50;;;14.60;99.90;;;;;;5068818;28;20232;-51
2022/11/09 11:59:20;;;;;;;1999.90;776.70;;;14.60;99.90;;;;;;5069286;28;20287;-51
2022/11/09 12:02:09;;;;;;;1999.90;913.08;;;14.80;99.90;;;;;;5053616;28;20225;-51
2022/11/09 12:04:55;;;;;;;1999.90;766.90;;;14.90;99.90;;;;;;5064671;28;20204;-52
2022/11/09 12:07:32;;;;;;;1999.90;657.28;;;14.90;99.90;;;;;;5069086;28;20323;-51
2022/11/09 12:10:19;;;;;;;1999.90;691.27;;;14.90;99.90;;;;;;5068319;28;20704;-51
2022/11/09 12:12:56;;;;;;;1999.90;757.77;;;14.90;99.90;;;;;;5062691;28;20363;-51
2022/11/09 12:15:37;;;;;;;1999.90;472.10;;;14.90;99.90;;;;;;5077311;28;20290;-50
2022/11/09 12:18:19;;;;;;;1999.90;751.47;;;15.00;99.90;;;;;;5059387;28;20305;-52